Lincoln, Maine
Current Conditions -  °F | °C
As of 2:53 PM on Wednesday 26 Nov 2014 (Local Time) from KMLT Reporting Station
Overcast Overcast  
Wind Chill: 33°   Ceiling: 7500
Heat Index: 37°   Visibility: 10mi
Dew Point: 23°   Wind: 5mph
Humidity: 57%   Direction: NA
Pressure: 30.16"   Gusts: NA
Location:  45.36°N, 68.5°W
Report Text: KMLT 261953Z AUTO VRB04KT 10SM SCT060 OVC075 03/M05 A3016 RMK AO2 SLP222 T00281050
Loading
Personal Weather Stations






























Interactive Weather Map New forecast layout! Learn more

10-Day Weather Forecast

Advertisements
Track Severe Weather on mobile